createdAt,value
2023-04-22T00:01:32.480Z,59.73
2023-04-22T00:03:59.628Z,58.33
2023-04-22T00:06:26.715Z,58.63
2023-04-22T00:08:53.666Z,58.87
2023-04-22T00:11:20.701Z,58.17
2023-04-22T00:13:47.617Z,58.60
2023-04-22T00:16:14.706Z,57.87
2023-04-22T00:18:41.792Z,57.80
2023-04-22T00:21:08.834Z,57.77
2023-04-22T00:23:35.874Z,57.60
2023-04-22T00:26:03.085Z,57.63
2023-04-22T00:28:30.051Z,56.80
2023-04-22T00:30:58.670Z,57.00
2023-04-22T00:33:25.736Z,57.23
2023-04-22T00:35:54.604Z,57.37
2023-04-22T00:38:22.998Z,57.17
2023-04-22T00:40:50.372Z,57.63
2023-04-22T00:43:17.911Z,57.67
2023-04-22T00:45:45.722Z,58.13
2023-04-22T00:48:13.755Z,57.57
2023-04-22T00:50:40.826Z,58.43
2023-04-22T00:53:07.835Z,58.27
2023-04-22T00:55:35.439Z,58.17
2023-04-22T00:58:03.982Z,58.27
2023-04-22T01:00:31.100Z,58.70
2023-04-22T01:02:58.821Z,57.80
2023-04-22T01:05:26.289Z,59.63
2023-04-22T01:07:53.223Z,58.87
2023-04-22T01:10:20.592Z,57.97
2023-04-22T01:12:47.502Z,58.20
2023-04-22T01:15:14.668Z,58.33
2023-04-22T01:17:41.743Z,58.37
2023-04-22T01:20:12.146Z,60.20
2023-04-22T01:22:45.553Z,59.87
2023-04-22T01:25:12.950Z,59.23
2023-04-22T01:27:41.050Z,59.10
2023-04-22T01:30:09.361Z,59.60
2023-04-22T01:32:37.161Z,59.07
2023-04-22T01:35:04.776Z,58.97
2023-04-22T01:37:31.912Z,58.83
2023-04-22T01:39:59.351Z,60.17
2023-04-22T01:42:26.723Z,59.90
2023-04-22T01:44:54.598Z,59.63
2023-04-22T01:47:21.608Z,59.83
2023-04-22T01:49:48.662Z,58.90
2023-04-22T01:52:16.052Z,60.30
2023-04-22T01:54:43.025Z,60.03
2023-04-22T01:57:14.304Z,60.57
2023-04-22T01:59:42.089Z,59.23
2023-04-22T02:02:09.398Z,60.63
2023-04-22T02:04:36.605Z,59.00
2023-04-22T02:07:03.733Z,59.63
2023-04-22T02:09:33.620Z,60.87
2023-04-22T02:12:01.473Z,60.70
2023-04-22T02:14:28.611Z,60.43
2023-04-22T02:16:55.665Z,59.63
2023-04-22T02:19:22.744Z,60.77
2023-04-22T02:21:49.748Z,61.07
2023-04-22T02:24:16.725Z,60.27
2023-04-22T02:26:43.759Z,60.70
2023-04-22T02:29:10.872Z,60.93
2023-04-22T02:31:37.910Z,60.83
2023-04-22T02:34:05.230Z,61.00
2023-04-22T02:36:32.464Z,60.13
2023-04-22T02:38:59.525Z,60.80
2023-04-22T02:41:26.637Z,60.97
2023-04-22T02:43:53.591Z,60.43
2023-04-22T02:46:20.651Z,61.73
2023-04-22T02:48:48.689Z,56.60
2023-04-22T02:51:15.704Z,54.97
2023-04-22T02:53:43.034Z,57.20
2023-04-22T02:56:10.138Z,58.87
2023-04-22T02:58:37.189Z,58.20
2023-04-22T03:01:04.440Z,58.10
2023-04-22T03:03:32.181Z,57.97
2023-04-22T03:05:59.303Z,59.67
2023-04-22T03:08:26.388Z,59.87
2023-04-22T03:10:53.424Z,59.10
2023-04-22T03:13:20.533Z,59.13
2023-04-22T03:15:47.682Z,60.00
2023-04-22T03:18:15.627Z,60.30
2023-04-22T03:20:43.673Z,59.80
2023-04-22T03:23:10.592Z,59.07
2023-04-22T03:25:38.323Z,59.47
2023-04-22T03:28:06.063Z,65.53
2023-04-22T03:30:33.038Z,61.83
2023-04-22T03:33:00.268Z,60.17
2023-04-22T03:35:36.380Z,58.70
2023-04-22T03:38:03.359Z,57.50
2023-04-22T03:40:33.684Z,57.97
2023-04-22T03:43:04.285Z,57.17
2023-04-22T03:45:31.917Z,58.47
2023-04-22T03:48:12.850Z,58.00
2023-04-22T03:50:45.941Z,58.53
2023-04-22T03:53:13.048Z,57.23
2023-04-22T03:55:40.175Z,55.27
2023-04-22T03:58:07.275Z,55.90
2023-04-22T04:00:34.816Z,56.77
2023-04-22T04:03:13.671Z,57.63
2023-04-22T04:05:40.911Z,59.03
2023-04-22T04:08:09.067Z,58.40
2023-04-22T04:10:37.313Z,58.43
2023-04-22T04:13:05.828Z,57.87
2023-04-22T04:15:41.318Z,57.00
2023-04-22T04:18:09.659Z,58.20
2023-04-22T04:20:37.072Z,56.80
2023-04-22T04:23:04.389Z,57.30
2023-04-22T04:25:37.743Z,56.90
2023-04-22T04:28:11.152Z,57.37
2023-04-22T04:30:38.883Z,57.00
2023-04-22T04:33:10.085Z,56.60
2023-04-22T04:35:41.596Z,55.93
2023-04-22T04:38:11.905Z,56.70
2023-04-22T04:40:39.210Z,56.60
2023-04-22T04:43:14.379Z,56.07
2023-04-22T04:45:53.448Z,56.30
2023-04-22T04:48:27.499Z,56.47
2023-04-22T04:51:00.625Z,56.07
2023-04-22T04:53:30.992Z,54.90
2023-04-22T04:55:57.986Z,56.20
2023-04-22T04:58:27.398Z,56.17
2023-04-22T05:01:09.265Z,54.93
2023-04-22T05:03:36.508Z,56.23
2023-04-22T05:06:05.398Z,56.00
2023-04-22T05:08:34.143Z,54.97
2023-04-22T05:11:06.384Z,56.40
2023-04-22T05:13:33.410Z,54.93
2023-04-22T05:16:01.236Z,55.03
2023-04-22T05:18:28.431Z,54.27
2023-04-22T05:21:00.760Z,54.57
2023-04-22T05:23:27.795Z,54.67
2023-04-22T05:25:57.914Z,52.50
2023-04-22T05:28:25.075Z,53.17
2023-04-22T05:30:55.896Z,50.03
2023-04-22T05:33:22.961Z,51.03
2023-04-22T05:35:52.335Z,50.30
2023-04-22T05:38:20.045Z,50.80
2023-04-22T05:40:47.063Z,50.67
2023-04-22T05:43:16.256Z,49.42
2023-04-22T05:45:48.617Z,48.70
2023-04-22T05:48:16.611Z,48.47
2023-04-22T05:50:54.382Z,49.65
2023-04-22T05:53:21.648Z,49.97
2023-04-22T05:55:48.733Z,48.07
2023-04-22T05:58:15.846Z,49.05
2023-04-22T06:00:53.135Z,47.40
2023-04-22T06:03:45.761Z,39.63
2023-04-22T06:06:13.277Z,39.35
2023-04-22T06:08:40.205Z,44.35
2023-04-22T06:11:07.200Z,38.47
2023-04-22T06:13:36.134Z,38.38
2023-04-22T06:16:05.281Z,44.53
2023-04-22T06:18:33.129Z,43.88
2023-04-22T06:21:00.545Z,42.05
2023-04-22T06:23:27.537Z,41.83
2023-04-22T06:25:54.460Z,41.70
2023-04-22T06:28:21.937Z,41.40
2023-04-22T06:30:51.190Z,41.88
2023-04-22T06:33:18.267Z,41.85
2023-04-22T06:35:45.765Z,41.97
2023-04-22T06:38:13.106Z,33.90
2023-04-22T06:40:58.773Z,32.10
2023-04-22T06:43:29.456Z,31.58
2023-04-22T06:46:05.680Z,28.00
2023-04-22T06:48:51.007Z,27.08
2023-04-22T06:51:38.180Z,25.23
2023-04-22T06:54:08.176Z,23.02
2023-04-22T06:56:36.086Z,22.27
2023-04-22T06:59:03.137Z,20.10
2023-04-22T07:01:30.628Z,18.30
2023-04-22T07:03:57.808Z,10.73
2023-04-22T07:06:25.255Z,8.35
2023-04-22T07:08:52.374Z,7.78
2023-04-22T07:11:19.503Z,7.82
2023-04-22T07:13:54.978Z,7.07
2023-04-22T07:16:21.979Z,6.78
2023-04-22T07:18:49.238Z,6.68
2023-04-22T07:21:16.149Z,6.65
2023-04-22T07:23:43.091Z,7.55
2023-04-22T07:26:10.103Z,6.47
2023-04-22T07:28:37.074Z,6.15
2023-04-22T07:31:04.134Z,5.53
2023-04-22T07:33:31.185Z,6.15
2023-04-22T07:35:58.190Z,6.10
2023-04-22T07:38:25.998Z,6.22
2023-04-22T07:40:52.903Z,6.32
2023-04-22T07:43:19.989Z,6.50
2023-04-22T07:45:47.044Z,7.53
2023-04-22T07:48:14.432Z,19.80
2023-04-22T07:50:41.525Z,60.95
2023-04-22T07:53:10.649Z,60.53
2023-04-22T07:55:37.667Z,60.55
2023-04-22T07:58:06.613Z,60.75
2023-04-22T08:00:35.447Z,60.58
2023-04-22T08:03:03.994Z,61.60
2023-04-22T08:05:31.129Z,61.17
2023-04-22T08:07:58.120Z,60.42
2023-04-22T08:10:25.314Z,61.92
2023-04-22T08:12:52.485Z,61.13
2023-04-22T08:15:19.557Z,61.78
2023-04-22T08:17:46.669Z,60.45
2023-04-22T08:20:15.524Z,61.95
2023-04-22T08:22:45.275Z,63.63
2023-04-22T08:25:12.341Z,62.30
2023-04-22T08:27:39.398Z,62.13
2023-04-22T08:30:07.737Z,61.95
2023-04-22T08:32:34.847Z,61.95
2023-04-22T08:35:04.887Z,61.67
2023-04-22T08:37:32.687Z,61.55
2023-04-22T08:39:59.656Z,61.45
2023-04-22T08:42:27.907Z,62.28
2023-04-22T08:44:55.040Z,62.30
2023-04-22T08:47:22.352Z,62.97
2023-04-22T08:49:54.640Z,62.28
2023-04-22T08:52:21.753Z,63.10
2023-04-22T08:54:48.661Z,62.25
2023-04-22T08:57:17.558Z,63.00
2023-04-22T08:59:45.262Z,62.97
2023-04-22T09:02:20.698Z,63.28
2023-04-22T09:04:50.627Z,62.22
2023-04-22T09:07:27.618Z,62.08
2023-04-22T09:09:58.504Z,62.08
2023-04-22T09:12:26.197Z,62.20
2023-04-22T09:14:54.468Z,62.38
2023-04-22T09:17:33.936Z,62.08
2023-04-22T09:20:07.255Z,63.03
2023-04-22T09:22:40.318Z,62.03
2023-04-22T09:25:20.909Z,63.30
2023-04-22T09:27:53.309Z,62.17
2023-04-22T09:30:27.965Z,62.20
2023-04-22T09:32:57.603Z,61.78
2023-04-22T09:35:37.193Z,61.97
2023-04-22T09:38:10.470Z,62.15
2023-04-22T09:40:42.354Z,62.28
2023-04-22T09:43:10.165Z,61.92
2023-04-22T09:45:42.903Z,62.13
2023-04-22T09:48:13.219Z,62.13
2023-04-22T09:50:51.288Z,62.30
2023-04-22T09:53:21.288Z,62.65
2023-04-22T09:55:53.580Z,62.13
2023-04-22T09:58:23.808Z,61.95
2023-04-22T10:00:58.002Z,60.80
2023-04-22T10:03:25.128Z,61.65
2023-04-22T10:05:52.329Z,61.20
2023-04-22T10:08:19.320Z,61.00
2023-04-22T10:10:46.470Z,61.80
2023-04-22T10:13:13.461Z,60.85
2023-04-22T10:15:49.819Z,60.95
2023-04-22T10:18:23.016Z,60.50
2023-04-22T10:20:51.493Z,59.75
2023-04-22T10:23:24.427Z,59.38
2023-04-22T10:25:55.326Z,59.33
2023-04-22T10:28:25.746Z,58.25
2023-04-22T10:30:52.742Z,58.03
2023-04-22T10:33:27.582Z,58.08
2023-04-22T10:36:18.049Z,56.92
2023-04-22T10:38:54.006Z,56.67
2023-04-22T10:41:33.149Z,59.13
2023-04-22T10:44:05.898Z,60.90
2023-04-22T10:46:32.948Z,58.67
2023-04-22T10:49:10.556Z,55.63
2023-04-22T10:51:55.484Z,58.00
2023-04-22T10:54:37.506Z,57.20
2023-04-22T10:57:15.495Z,53.33
2023-04-22T10:59:50.088Z,53.67
2023-04-22T11:02:19.553Z,54.10
2023-04-22T11:04:47.163Z,50.95
2023-04-22T11:07:26.510Z,51.75
2023-04-22T11:09:59.074Z,49.50
2023-04-22T11:12:42.101Z,51.85
2023-04-22T11:15:15.741Z,50.88
2023-04-22T11:17:45.488Z,47.00
2023-04-22T11:20:17.222Z,45.42
2023-04-22T11:22:51.112Z,44.47
2023-04-22T11:25:18.209Z,43.40
2023-04-22T11:27:45.968Z,40.88
2023-04-22T11:30:21.407Z,38.90
2023-04-22T11:32:52.361Z,31.40
2023-04-22T11:35:48.874Z,31.67
2023-04-22T11:38:16.056Z,36.13
2023-04-22T11:40:46.561Z,43.00
2023-04-22T11:43:14.443Z,43.20
2023-04-22T11:45:41.591Z,41.00
2023-04-22T11:48:11.252Z,43.55
2023-04-22T11:50:40.747Z,44.92
2023-04-22T11:53:20.836Z,44.38
2023-04-22T11:55:51.361Z,45.80
2023-04-22T11:58:27.412Z,44.10
2023-04-22T12:00:57.484Z,42.30
2023-04-22T12:03:31.661Z,35.70
2023-04-22T12:06:04.748Z,36.22
2023-04-22T12:08:36.841Z,32.35
2023-04-22T12:11:07.013Z,28.98
2023-04-22T12:13:43.161Z,29.45
2023-04-22T12:16:13.674Z,22.92
2023-04-22T12:18:51.932Z,27.48
2023-04-22T12:21:24.994Z,26.48
2023-04-22T12:24:04.831Z,25.85
2023-04-22T12:26:32.281Z,33.50
2023-04-22T12:29:00.793Z,28.60
2023-04-22T12:31:28.375Z,29.90
2023-04-22T12:33:56.380Z,32.75
2023-04-22T12:36:24.127Z,22.35
2023-04-22T12:38:51.350Z,9.82
2023-04-22T12:41:18.349Z,5.40
2023-04-22T12:43:45.350Z,4.45
2023-04-22T12:46:12.439Z,5.38
2023-04-22T12:48:39.870Z,4.15
2023-04-22T12:51:07.206Z,4.00
2023-04-22T12:53:34.699Z,4.13
2023-04-22T12:56:01.652Z,4.60
2023-04-22T12:58:28.832Z,3.85
2023-04-22T13:00:55.789Z,4.45
2023-04-22T13:03:22.928Z,4.70
2023-04-22T13:05:50.070Z,5.20
2023-04-22T13:08:17.809Z,4.10
2023-04-22T13:10:44.794Z,10.32
2023-04-22T13:15:41.723Z,4.82
2023-04-22T13:18:08.784Z,4.28
2023-04-22T13:20:36.124Z,4.10
2023-04-22T13:23:04.592Z,5.68
2023-04-22T13:25:32.173Z,3.42
2023-04-22T13:27:59.268Z,4.45
2023-04-22T13:30:26.342Z,4.15
2023-04-22T13:32:53.408Z,4.38
2023-04-22T13:35:20.753Z,4.00
2023-04-22T13:37:47.715Z,4.40
2023-04-22T13:40:14.937Z,4.03
2023-04-22T13:42:41.962Z,3.85
2023-04-22T13:45:09.682Z,3.65
2023-04-22T13:47:36.723Z,4.25
2023-04-22T13:50:05.537Z,3.45
2023-04-22T13:52:32.612Z,3.97
2023-04-22T13:54:59.565Z,3.70
2023-04-22T13:57:27.388Z,3.97
2023-04-22T13:59:54.329Z,4.32
2023-04-22T14:02:21.338Z,3.80
2023-04-22T14:04:48.380Z,4.25
2023-04-22T14:07:15.479Z,4.10
2023-04-22T14:09:42.735Z,4.90
2023-04-22T14:12:11.300Z,3.95
2023-04-22T14:14:39.177Z,3.58
2023-04-22T14:17:06.748Z,4.03
2023-04-22T14:19:36.421Z,4.50
2023-04-22T14:22:03.397Z,3.75
2023-04-22T14:24:30.942Z,4.20
2023-04-22T14:27:01.594Z,4.75
2023-04-22T14:29:29.940Z,4.05
2023-04-22T14:31:57.960Z,5.78
2023-04-22T14:34:26.861Z,4.72
2023-04-22T14:36:54.213Z,4.07
2023-04-22T14:39:21.645Z,3.83
2023-04-22T14:41:49.282Z,3.25
2023-04-22T14:44:16.286Z,4.07
2023-04-22T14:46:43.257Z,4.40
2023-04-22T14:49:10.213Z,4.90
2023-04-22T14:51:37.306Z,3.65
2023-04-22T14:54:04.865Z,4.63
2023-04-22T14:56:31.823Z,3.67
2023-04-22T14:58:58.795Z,3.25
2023-04-22T15:01:26.192Z,3.58
2023-04-22T15:03:53.523Z,4.13
2023-04-22T15:06:20.644Z,3.95
2023-04-22T15:08:47.670Z,4.10
2023-04-22T15:11:14.722Z,4.45
2023-04-22T15:13:41.713Z,3.90
2023-04-22T15:16:08.865Z,3.45
2023-04-22T15:18:36.374Z,8.63
2023-04-22T15:21:05.794Z,3.22
2023-04-22T15:23:33.056Z,2.47
2023-04-22T15:26:00.095Z,3.35
2023-04-22T15:28:27.207Z,2.95
2023-04-22T15:30:54.308Z,3.53
2023-04-22T15:33:21.418Z,2.85
2023-04-22T15:35:50.014Z,2.63
2023-04-22T15:38:17.580Z,3.10
2023-04-22T15:40:44.514Z,3.38
2023-04-22T15:43:11.566Z,2.90
2023-04-22T15:45:38.579Z,3.13
2023-04-22T15:48:05.951Z,2.70
2023-04-22T15:50:32.990Z,3.28
2023-04-22T15:52:59.971Z,2.90
2023-04-22T15:55:26.942Z,3.47
2023-04-22T15:57:53.909Z,2.40
2023-04-22T16:00:21.217Z,2.45
2023-04-22T16:02:55.163Z,2.75
2023-04-22T16:05:24.795Z,4.30
2023-04-22T16:07:53.511Z,4.32
2023-04-22T16:10:21.232Z,3.08
2023-04-22T16:12:48.935Z,3.65
2023-04-22T16:15:16.579Z,3.50
2023-04-22T16:17:44.322Z,5.50
2023-04-22T16:20:11.826Z,5.60
2023-04-22T16:22:38.885Z,4.63
2023-04-22T16:25:07.032Z,5.50
2023-04-22T16:27:34.034Z,4.35
2023-04-22T16:30:01.919Z,5.60
2023-04-22T16:32:28.996Z,7.50
2023-04-22T16:34:56.066Z,7.55
2023-04-22T16:37:23.206Z,10.60
2023-04-22T16:39:50.596Z,6.43
2023-04-22T16:42:17.624Z,7.43
2023-04-22T16:44:44.847Z,7.82
2023-04-22T16:47:11.767Z,6.80
2023-04-22T16:49:39.228Z,5.68
2023-04-22T16:52:06.379Z,4.50
2023-04-22T16:54:33.894Z,5.15
2023-04-22T16:57:01.492Z,3.80
2023-04-22T16:59:42.281Z,4.43
2023-04-22T17:02:09.579Z,4.90
2023-04-22T17:04:36.685Z,5.03
2023-04-22T17:07:03.712Z,4.35
2023-04-22T17:09:32.708Z,5.18
2023-04-22T17:11:59.865Z,4.95
2023-04-22T17:14:26.954Z,5.50
2023-04-22T17:16:53.856Z,5.65
2023-04-22T17:19:20.884Z,6.22
2023-04-22T17:21:47.841Z,4.95
2023-04-22T17:24:14.867Z,19.95
2023-04-22T17:26:41.888Z,6.90
2023-04-22T17:29:08.863Z,17.13
2023-04-22T17:31:35.946Z,8.98
2023-04-22T17:34:03.454Z,6.18
2023-04-22T17:36:31.676Z,9.95
2023-04-22T17:38:58.670Z,11.77
2023-04-22T17:41:25.647Z,11.23
2023-04-22T17:43:52.592Z,12.27
2023-04-22T17:46:19.575Z,12.43
2023-04-22T17:48:46.833Z,16.88
2023-04-22T17:51:14.507Z,20.05
2023-04-22T17:53:42.031Z,21.80
2023-04-22T17:56:09.706Z,24.05
2023-04-22T17:58:39.285Z,30.88
2023-04-22T18:01:07.190Z,31.75
2023-04-22T18:03:34.956Z,29.48
2023-04-22T18:06:02.244Z,59.07
2023-04-22T18:08:29.200Z,50.25
2023-04-22T18:10:56.185Z,45.00
2023-04-22T18:13:23.119Z,49.35
2023-04-22T18:15:50.084Z,61.75
2023-04-22T18:18:17.089Z,44.25
2023-04-22T18:20:45.533Z,43.53
2023-04-22T18:23:12.541Z,41.63
2023-04-22T18:25:47.028Z,86.82
2023-04-22T18:28:15.388Z,61.50
2023-04-22T18:30:44.171Z,40.85
2023-04-22T18:33:11.382Z,39.28
2023-04-22T18:35:38.400Z,40.17
2023-04-22T18:38:05.439Z,40.40
2023-04-22T18:40:32.603Z,40.83
2023-04-22T18:42:59.586Z,46.72
2023-04-22T18:45:26.623Z,45.00
2023-04-22T18:47:53.659Z,46.15
2023-04-22T18:50:22.267Z,48.03
2023-04-22T18:52:49.357Z,52.35
2023-04-22T18:55:16.422Z,51.03
2023-04-22T18:57:43.766Z,57.60
2023-04-22T19:00:13.253Z,57.03
2023-04-22T19:02:42.377Z,66.85
2023-04-22T19:05:10.106Z,69.88
2023-04-22T19:07:38.256Z,66.40
2023-04-22T19:10:06.679Z,57.42
2023-04-22T19:12:34.374Z,56.15
2023-04-22T19:15:01.572Z,52.72
2023-04-22T19:17:28.826Z,53.95
2023-04-22T19:19:55.873Z,62.28
2023-04-22T19:22:22.898Z,63.08
2023-04-22T19:24:50.096Z,55.60
2023-04-22T19:27:17.449Z,50.78
2023-04-22T19:29:51.003Z,55.08
2023-04-22T19:32:18.077Z,45.25
2023-04-22T19:34:45.286Z,41.60
2023-04-22T19:37:12.277Z,44.55
2023-04-22T19:39:39.663Z,45.85
2023-04-22T19:42:06.895Z,44.17
2023-04-22T19:44:34.196Z,47.65
2023-04-22T19:47:01.326Z,45.67
2023-04-22T19:49:31.133Z,51.05
2023-04-22T19:51:58.467Z,64.10
2023-04-22T19:54:29.431Z,72.47
2023-04-22T19:56:58.430Z,72.15
2023-04-22T19:59:28.035Z,72.78
2023-04-22T20:01:55.399Z,69.40
2023-04-22T20:04:23.132Z,68.90
2023-04-22T20:06:51.508Z,68.18
2023-04-22T20:09:19.181Z,68.20
2023-04-22T20:11:47.628Z,68.72
2023-04-22T20:14:15.064Z,69.50
2023-04-22T20:16:42.471Z,70.15
2023-04-22T20:19:11.417Z,71.60
2023-04-22T20:21:40.096Z,73.95
2023-04-22T20:24:08.156Z,72.80
2023-04-22T20:26:35.821Z,71.50
2023-04-22T20:29:03.179Z,73.60
2023-04-22T20:31:30.453Z,71.22
2023-04-22T20:33:58.079Z,71.35
2023-04-22T20:36:26.424Z,71.20
2023-04-22T20:38:56.264Z,71.60
2023-04-22T20:41:24.589Z,71.82
2023-04-22T20:43:52.286Z,73.15
2023-04-22T20:46:20.794Z,72.32
2023-04-22T20:48:49.665Z,73.43
2023-04-22T20:51:16.730Z,73.88
2023-04-22T20:53:44.093Z,72.43
2023-04-22T20:56:11.203Z,72.97
2023-04-22T20:58:38.275Z,75.95
2023-04-22T21:01:08.037Z,72.53
2023-04-22T21:03:37.326Z,72.57
2023-04-22T21:06:05.159Z,73.75
2023-04-22T21:08:33.898Z,72.97
2023-04-22T21:11:01.373Z,72.88
2023-04-22T21:13:28.952Z,72.28
2023-04-22T21:16:02.044Z,69.70
2023-04-22T21:18:32.395Z,70.93
2023-04-22T21:21:03.306Z,69.43
2023-04-22T21:23:31.109Z,71.18
2023-04-22T21:26:01.446Z,70.10
2023-04-22T21:28:29.104Z,70.00
2023-04-22T21:30:56.671Z,68.93
2023-04-22T21:33:25.147Z,68.65
2023-04-22T21:35:52.486Z,69.10
2023-04-22T21:38:19.879Z,68.43
2023-04-22T21:40:49.985Z,68.22
2023-04-22T21:43:17.008Z,68.22
2023-04-22T21:45:43.997Z,68.15
2023-04-22T21:48:10.926Z,68.40
2023-04-22T21:50:37.957Z,67.20
2023-04-22T21:53:05.267Z,66.93
2023-04-22T21:55:32.304Z,68.00
2023-04-22T21:57:59.270Z,67.90
2023-04-22T22:00:26.294Z,67.38
2023-04-22T22:02:53.725Z,67.40
2023-04-22T22:05:20.926Z,66.90
2023-04-22T22:07:48.927Z,67.03
2023-04-22T22:10:22.456Z,65.10
2023-04-22T22:12:49.824Z,65.28
2023-04-22T22:15:17.429Z,63.80
2023-04-22T22:17:45.553Z,66.53
2023-04-22T22:20:16.751Z,67.97
2023-04-22T22:22:44.728Z,67.18
2023-04-22T22:25:15.664Z,68.30
2023-04-22T22:27:48.651Z,66.82
2023-04-22T22:30:21.374Z,66.93
2023-04-22T22:32:48.899Z,66.63
2023-04-22T22:35:16.330Z,67.50
2023-04-22T22:37:44.602Z,68.22
2023-04-22T22:40:12.325Z,66.22
2023-04-22T22:42:39.383Z,67.82
2023-04-22T22:45:07.035Z,67.88
2023-04-22T22:47:34.187Z,68.05
2023-04-22T22:50:01.346Z,70.15
2023-04-22T22:52:29.276Z,71.70
2023-04-22T22:54:56.389Z,69.80
2023-04-22T22:57:23.445Z,73.78
2023-04-22T22:59:50.605Z,73.47
2023-04-22T23:02:17.919Z,74.40
2023-04-22T23:04:45.623Z,74.93
2023-04-22T23:07:14.584Z,73.07
2023-04-22T23:09:41.585Z,73.68
2023-04-22T23:12:08.513Z,70.13
2023-04-22T23:14:36.476Z,69.82
2023-04-22T23:17:03.536Z,70.55
2023-04-22T23:19:31.799Z,70.88
2023-04-22T23:21:59.122Z,70.22
2023-04-22T23:24:26.592Z,68.57
2023-04-22T23:26:53.881Z,69.88
2023-04-22T23:29:21.633Z,70.38
2023-04-22T23:31:51.448Z,68.72
2023-04-22T23:34:22.580Z,69.00
2023-04-22T23:36:50.498Z,69.68
2023-04-22T23:39:17.450Z,74.90
2023-04-22T23:41:44.663Z,71.30
2023-04-22T23:44:11.840Z,72.05
2023-04-22T23:46:38.937Z,71.43
2023-04-22T23:49:07.104Z,71.28
2023-04-22T23:51:35.092Z,72.30
2023-04-22T23:54:02.039Z,72.38
2023-04-22T23:56:29.460Z,71.60
2023-04-22T23:58:57.148Z,72.28
